Latest Coastal Weather Observations for Esperance

IDW60701

Issued at 5:32 am WST Thursday 7 May 2015 (issued every 10 minutes, with the page automatically refreshed every 10 minutes)

About coastal observations | Map of coastal stations | Coastal observations for WA | Marine services | Other Formats
Station Details ID: 009789 Name: ESPERANCE Lat: -33.83 Lon: 121.89 Height: 25.0 m
Data from the previous 72 hours. | See also: Recent months at Esperance
Date/Time
WST
Temp

°C
Wind Pressure Rain
since 9am
mm
Weather Cloud Vis
km
Sea
Height
m
Swell
Dir
 
Speed
knots
Gust
knots
hPa Trend Height
m
Period
s
Dir
07/05:30am 10.9 WNW 5 8 1031.4 - 0.2 - Partly cloudy 10 - - - -
07/05:00am 11.0 WNW 4 5 1031.1 - 0.2 - Cloudy 10 - - - -
07/04:30am 11.3 WNW 5 6 1030.8 - 0.2 - Partly cloudy 10 - - - -
07/04:00am 11.5 W 4 5 1030.7 - 0.2 - Cloudy 10 - - - -
07/03:30am 11.3 NW 3 5 1030.6 - 0.2 - Cloudy 10 - - - -
07/03:00am 10.9 NW 4 6 1030.5 R 0.2 - Mostly cloudy 10 - - - -
07/02:30am 10.8 W 5 6 1030.4 - 0.2 - Partly cloudy 10 - - - -
07/02:00am 10.8 NNW 4 4 1030.5 - 0.2 - Partly cloudy 10 - - - -
07/01:30am 11.2 N 5 5 1030.5 - 0.2 - - 10 - - - -
07/01:00am 12.1 NNW 3 4 1030.5 - 0.2 - Partly cloudy 10 - - - -
07/12:30am 12.6 N 3 4 1030.4 - 0.2 - Partly cloudy 10 - - - -
07/12:00am 13.6 WNW 3 4 1030.5 R 0.2 - Cloudy 10 - - - -
 
Date/Time
WST
Temp

°C
Wind Pressure Rain
since 9am
mm
Weather Cloud Vis
km
Sea
Height
m
Swell
Dir
 
Speed
knots
Gust
knots
hPa Trend Height
m
Period
s
Dir
06/11:30pm 13.8 WNW 3 4 1030.4 - 0.2 - Cloudy 10 - - - -
06/11:00pm 14.1 SSW 3 5 1030.3 - 0.2 - Cloudy 10 - - - -
06/10:30pm 14.3 SW 4 5 1030.4 - 0.2 - Cloudy 10 - - - -
06/10:00pm 14.6 SSW 4 5 1030.4 - 0.2 - Cloudy 10 - - - -
06/09:30pm 15.0 SSW 3 4 1030.5 - 0.2 - Partly cloudy 10 - - - -
06/09:00pm 14.8 S 4 6 1030.3 F 0.2 - Cloudy 10 - - - -
06/08:30pm 14.9 SW 4 5 1030.2 - 0.2 - Partly cloudy 10 - - - -
06/08:00pm 15.2 SW 3 4 1030.1 - 0.2 - Mostly clear 10 - - - -
06/07:30pm 15.3 S 4 6 1029.9 - 0.2 - Mostly clear 10 - - - -
06/07:00pm 15.4 S 5 8 1029.9 - 0.2 - Mostly clear 10 - - - -
06/06:30pm 15.4 S 5 7 1029.6 - 0.2 - Mostly clear 10 - - - -
06/06:00pm 15.5 S 6 9 1029.4 R 0.2 Fine Cloudy 25 - - - -
06/05:30pm 15.5 SSW 6 9 1029.0 - 0.2 - Mostly clear 10 - - - -
06/05:00pm 15.6 SSW 6 8 1028.7 - 0.2 - Mostly clear 10 - - - -
06/04:30pm 16.1 S 6 9 1028.6 - 0.2 - Partly cloudy 10 - - - -
06/04:00pm 16.3 S 7 11 1028.4 - 0.2 - Mostly clear 10 - - - -
06/03:30pm 16.5 SSE 7 10 1028.2 - 0.2 - Mostly clear 10 - - - -
06/03:00pm 16.6 S 7 10 1028.1 R 0.2 Fine Mostly cloudy 30 - - - -
06/02:30pm 16.6 SSE 9 11 1028.0 - 0.2 - Mostly clear 10 - - - -
06/02:00pm 16.8 S 9 12 1027.9 - 0.2 - Mostly clear 10 - - - -
06/01:30pm 16.9 S 9 13 1027.8 - 0.2 - Mostly clear 10 - - - -
06/01:00pm 17.0 S 8 12 1027.9 - 0.2 - Mostly clear 10 - - - -
06/12:30pm 16.5 S 7 11 1028.1 - 0.2 - Mostly clear 10 - - - -
06/12:00pm 16.8 SSW 4 7 1028.3 R 0.2 Distant precip. Mostly cloudy 30 - - - -
06/11:30am 16.3 SSW 4 6 1028.7 - 0.2 - Mostly clear 10 - - - -
06/11:00am 16.2 WNW 6 8 1029.0 - 0.2 - Mostly clear 10 - - - -
06/10:30am 15.2 WNW 6 8 1029.2 - 0.2 - Mostly clear 10 - - - -
06/10:00am 14.5 NW 8 10 1029.1 - 0.2 - Mostly clear 10 - - - -
06/09:30am 14.0 WNW 6 9 1029.1 - 0.2 Rain Mostly clear 8 - - - -
06/09:00am 14.1 WNW 7 11 1028.8 R 3.0 Rain Mostly cloudy 5 - - - -
06/08:30am 13.4 NW 9 17 1028.7 - 3.0 - Partly cloudy 10 - - - -
06/08:00am 13.0 NW 8 10 1028.3 - 3.0 - Mostly clear 10 - - - -
06/07:30am 12.6 WNW 9 12 1028.0 - 2.8 Rain Mostly clear 5 - - - -
06/07:23am 12.6 WNW 9 12 1027.8 - 2.8 Rain Mostly clear 7 - - - -
06/07:00am 12.3 WNW 9 11 1027.6 - 2.8 - Mostly clear 10 - - - -
06/06:30am 12.2 WNW 9 12 1027.2 - 2.8 Rain Mostly clear 10 - - - -
06/06:00am 12.0 WNW 8 11 1027.0 R 2.6 Rain Mostly cloudy 12 - - - -
06/05:42am 12.0 NW 9 11 1026.8 - 2.6 - Partly cloudy 10 - - - -
06/05:30am 12.1 WNW 8 11 1026.7 - 2.6 - Partly cloudy 7 - - - -
06/05:26am 12.2 WNW 8 11 1026.7 - 2.6 - Partly cloudy 7 - - - -
06/05:00am 12.1 WNW 8 11 1026.3 - 2.4 - Partly cloudy 10 - - - -
06/04:44am 12.2 WNW 8 11 1026.2 - 2.4 - Partly cloudy 10 - - - -
06/04:30am 12.2 WNW 9 12 1026.1 - 2.4 - Partly cloudy 4 - - - -
06/04:22am 12.2 WNW 9 12 1026.2 - 2.0 - Partly cloudy 7 - - - -
06/04:00am 12.1 NW 7 10 1025.8 - 1.8 - Partly cloudy 10 - - - -
06/03:30am 12.2 NW 9 12 1025.8 - 1.8 - Partly cloudy 10 - - - -
06/03:00am 12.5 NW 8 11 1025.9 R 1.8 - Cloudy 10 - - - -
06/02:30am 12.6 NW 8 10 1025.7 - 1.8 - Partly cloudy 10 - - - -
06/02:00am 12.5 NW 6 8 1025.7 - 1.8 - Partly cloudy 10 - - - -
06/01:30am 12.7 NW 7 9 1025.7 - 1.8 - Partly cloudy 10 - - - -
06/01:00am 12.7 NW 7 9 1025.8 - 1.8 - Cloudy 10 - - - -
06/12:30am 12.7 NW 7 11 1025.7 - 1.8 - Partly cloudy 10 - - - -
06/12:00am 12.9 NW 7 10 1025.6 R 1.8 Recent precip. Cloudy 10 - - - -
 
Date/Time
WST
Temp

°C
Wind Pressure Rain
since 9am
mm
Weather Cloud Vis
km
Sea
Height
m
Swell
Dir
 
Speed
knots
Gust
knots
hPa Trend Height
m
Period
s
Dir
05/11:30pm 13.3 WSW 4 5 1025.3 - 1.6 - Partly cloudy 10 - - - -
05/11:27pm 13.2 WSW 4 5 1025.3 - 1.6 - Partly cloudy 10 - - - -
05/11:00pm 12.9 WNW 5 6 1025.7 - 0.8 - Partly cloudy 10 - - - -
05/10:45pm 12.8 W 7 10 1025.6 - 0.6 - Partly cloudy 7 - - - -
05/10:30pm 12.6 NW 8 16 1025.7 - 0.6 - Partly cloudy 10 - - - -
05/10:08pm 12.5 W 6 9 1025.6 - 0.6 - Partly cloudy 10 - - - -
05/10:00pm 12.5 WNW 7 9 1025.7 - 0.6 - Partly cloudy 10 - - - -
05/09:49pm 12.5 WNW 5 6 1025.4 - 0.4 - Partly cloudy 7 - - - -
05/09:30pm 12.3 NW 7 10 1025.3 - 0.2 - Partly cloudy 10 - - - -
05/09:00pm 12.6 W 5 7 1025.3 R 0.2 - Cloudy 10 - - - -
05/08:30pm 12.7 NW 6 8 1024.9 - 0.2 - Partly cloudy 10 - - - -
05/08:00pm 12.9 NW 7 10 1024.9 - 0.2 - Mostly clear 10 - - - -
05/07:30pm 13.3 NW 5 5 1024.8 - 0.2 - Mostly clear 10 - - - -
05/07:00pm 14.2 W 5 6 1024.7 - 0.2 - Mostly clear 10 - - - -
05/06:30pm 14.6 SW 6 8 1024.5 - 0.2 - Mostly clear 10 - - - -
05/06:00pm 14.8 SW 6 9 1024.2 F 0.2 Fine Mostly clear 30 - - - -
05/05:30pm 15.2 WSW 6 8 1024.1 - 0.2 - Mostly clear 10 - - - -
05/05:00pm 15.6 SW 8 12 1024.1 - 0.2 - Mostly clear 10 - - - -
05/04:30pm 16.1 SW 7 11 1024.1 - 0.2 - Partly cloudy 10 - - - -
05/04:00pm 16.4 SSW 9 16 1024.2 - 0.2 - Partly cloudy 10 - - - -
05/03:30pm 17.2 SW 9 16 1024.1 - 0.2 - Partly cloudy 10 - - - -
05/03:00pm 16.7 SW 10 16 1023.9 R 0.2 Fine Partly cloudy 30 - - - -
05/02:30pm 17.8 SW 9 18 1023.8 - 0.2 - Partly cloudy 10 - - - -
05/02:00pm 17.9 SW 10 17 1023.6 - 0.2 - Partly cloudy 10 - - - -
05/01:30pm 17.3 SW 11 18 1023.6 - 0.2 - Mostly clear 10 - - - -
05/01:00pm 17.7 SSW 12 17 1023.6 - 0.2 - Mostly clear 10 - - - -
05/12:30pm 17.7 SW 12 19 1023.8 - 0.2 - Partly cloudy 10 - - - -
05/12:00pm 18.0 WSW 12 19 1024.1 R 0.2 Distant precip. Partly cloudy 30 - - - -
05/11:30am 17.5 SW 10 16 1024.5 - 0.2 - Mostly clear 10 - - - -
05/11:00am 15.6 WSW 9 14 1024.9 - 0.2 - Mostly clear 10 - - - -
05/10:30am 14.2 WSW 12 20 1025.1 - 0.0 - Mostly clear 10 - - - -
05/10:00am 15.7 NW 8 12 1024.9 - 0.0 - Mostly clear 10 - - - -
05/09:30am 14.3 NW 10 13 1024.9 - 0.0 - Mostly clear 10 - - - -
05/09:00am 13.9 NW 9 13 1024.9 R 7.4 Recent precip. Mostly cloudy 25 - - - -
05/08:30am 14.2 W 8 13 1024.9 - 7.4 Showers Mostly clear 10 - - - -
05/08:00am 13.6 WNW 7 11 1024.5 - 7.4 - Mostly clear 10 - - - -
05/07:30am 12.3 NW 9 13 1024.1 - 7.4 - Mostly clear 10 - - - -
05/07:00am 13.8 WSW 5 8 1023.9 - 7.4 - Mostly clear 10 - - - -
05/06:30am 14.0 WSW 7 10 1023.4 - 7.4 - Mostly clear 10 - - - -
05/06:00am 14.2 SW 8 13 1023.2 R 7.4 Distant precip. Partly cloudy 25 - - - -
05/05:30am 13.9 SSW 9 14 1023.1 - 7.4 - Partly cloudy 10 - - - -
05/05:00am 14.7 SW 11 16 1022.8 - 7.4 - Partly cloudy 10 - - - -
05/04:30am 14.5 SSW 9 16 1022.7 - 7.4 - Partly cloudy 10 - - - -
05/04:00am 14.7 SW 10 17 1022.5 - 7.4 - Partly cloudy 10 - - - -
05/03:30am 14.5 SSW 13 22 1022.2 - 7.4 - Partly cloudy 10 - - - -
05/03:00am 14.4 SW 12 19 1022.0 R 7.4 - Cloudy 10 - - - -
05/02:30am 14.3 SSW 13 20 1022.0 - 7.4 - Partly cloudy 10 - - - -
05/02:00am 14.4 SW 12 18 1021.7 - 7.4 - Cloudy 10 - - - -
05/01:30am 14.6 SW 15 27 1021.5 - 7.4 - Partly cloudy 10 - - - -
05/01:26am 14.6 SSW 15 27 1021.4 - 7.4 - Partly cloudy 10 - - - -
05/01:00am 13.9 SSW 13 24 1021.4 - 7.4 - Partly cloudy 10 - - - -
05/12:46am 14.4 SW 15 25 1021.4 - 7.4 - Partly cloudy 10 - - - -
05/12:30am 13.6 SW 11 19 1021.3 - 7.2 - Partly cloudy 10 - - - -
05/12:00am 13.2 SW 11 27 1021.4 R 7.2 - Cloudy 10 - - - -
 
Date/Time
WST
Temp

°C
Wind Pressure Rain
since 9am
mm
Weather Cloud Vis
km
Sea
Height
m
Swell
Dir
 
Speed
knots
Gust
knots
hPa Trend Height
m
Period
s
Dir
04/11:30pm 12.9 SW 13 21 1021.2 - 7.2 - Partly cloudy 10 - - - -
04/11:00pm 13.9 SW 15 26 1021.3 - 7.2 - Partly cloudy 10 - - - -
04/10:30pm 14.2 SW 16 27 1021.1 - 7.2 - Partly cloudy 10 - - - -
04/10:08pm 13.2 SW 17 30 1021.4 - 7.2 - Partly cloudy 10 - - - -
04/10:07pm 13.3 SW 17 30 1021.4 - 7.2 - Partly cloudy 10 - - - -
04/10:00pm 13.7 SSW 16 27 1021.2 - 7.2 - Partly cloudy 10 - - - -
04/09:48pm 14.4 SW 16 28 1021.0 - 7.2 - Partly cloudy 10 - - - -
04/09:30pm 14.5 SW 14 21 1020.9 - 7.0 - Partly cloudy 10 - - - -
04/09:17pm 14.3 SW 15 25 1020.8 - 7.0 - Partly cloudy 10 - - - -
04/09:00pm 13.2 SW 12 20 1020.7 R 7.0 - Cloudy 10 - - - -
04/08:30pm 14.2 SW 15 21 1020.5 - 7.0 - Partly cloudy 10 - - - -
04/08:00pm 13.9 SW 16 28 1020.4 - 7.0 - Partly cloudy 10 - - - -
04/07:30pm 14.0 SW 15 28 1020.2 - 7.0 - Partly cloudy 10 - - - -
04/07:00pm 13.9 WSW 17 27 1020.0 - 7.0 - Partly cloudy 10 - - - -
04/06:30pm 13.6 SW 16 27 1019.6 - 7.0 - Partly cloudy 10 - - - -
04/06:20pm 13.8 WSW 16 26 1019.3 - 7.0 - Partly cloudy 10 - - - -
04/06:00pm 13.1 SW 15 23 1019.1 R 7.0 Distant precip. Mostly cloudy 15 - - - -
04/05:48pm 13.3 WSW 16 27 1018.9 - 7.0 - Partly cloudy 10 - - - -
04/05:30pm 12.5 WSW 14 25 1018.6 - 7.0 - Partly cloudy 10 - - - -
04/05:00pm 12.5 WSW 15 25 1018.3 - 7.0 - Partly cloudy 10 - - - -
04/04:30pm 12.0 WSW 15 28 1017.8 - 7.0 Showers Partly cloudy 7 - - - -
04/04:00pm 11.4 W 12 19 1017.4 - 6.8 - Partly cloudy 8 - - - -
04/03:30pm 11.7 W 13 21 1017.3 - 6.0 Showers Partly cloudy 6 - - - -
04/03:00pm 12.1 W 15 25 1016.6 R 5.6 Recent precip. Mostly cloudy 10 - - - -
04/02:30pm 11.0 WNW 15 25 1016.2 - 5.6 - Partly cloudy 9 - - - -
04/02:00pm 11.7 W 15 24 1016.1 - 5.4 - Partly cloudy 10 - - - -
04/01:46pm 11.5 W 15 34 1015.8 - 5.4 Showers Partly cloudy 7 - - - -
04/01:30pm 11.8 WNW 16 24 1015.5 - 5.4 - Partly cloudy 10 - - - -
04/01:00pm 10.1 W 12 21 1015.4 - 5.2 - Partly cloudy 7 - - - -
04/12:42pm 10.7 WSW 18 31 1015.6 - 3.8 Showers Partly cloudy 7 - - - -
04/12:30pm 13.1 W 16 28 1015.2 - 3.6 Showers Partly cloudy 8 - - - -
04/12:10pm 12.9 W 15 27 1015.1 - 3.6 - Partly cloudy 10 - - - -
04/12:00pm 12.0 W 13 20 1015.0 R 3.6 Recent th'storm Partly cloudy 12 - - - -
04/11:30am 9.9 WSW 15 28 1015.4 - 3.6 Showers Partly cloudy 8 - - - -
04/11:12am 8.8 W 18 31 1015.6 - 3.0 Thunderstorm Mostly clear 4 - - - -
04/11:00am 9.6 WNW 17 33 1015.5 - 2.2 - Mostly clear 5 - - - -
04/10:56am 10.1 WNW 16 29 1015.2 - 1.8 Thunderstorm Mostly clear 5 - - - -
04/10:53am 10.5 WNW 15 24 1014.9 - 1.6 Thunderstorm Mostly clear 5 - - - -
04/10:49am 11.0 WNW 13 24 1014.5 - 1.6 Showers Mostly clear 5 - - - -
04/10:30am 11.0 W 7 12 1014.3 - 1.6 - Mostly clear 10 - - - -
04/10:00am 8.1 WNW 13 18 1014.6 - 1.2 - Mostly clear 10 - - - -
04/09:30am 8.7 WNW 17 27 1013.7 - 0.2 Showers Mostly clear 8 - - - -
04/09:28am 9.0 WNW 16 27 1013.7 - 0.2 Showers Mostly clear 8 - - - -
04/09:00am 8.5 WNW 12 18 1013.5 R 15.8 Showers Mostly cloudy 12 - - - -
04/08:35am 8.5 WNW 19 29 1012.5 - 14.4 Showers Mostly clear 6 - - - -
04/08:30am 8.8 WNW 18 28 1012.7 - 14.4 Showers Mostly clear 10 - - - -
04/08:25am 8.8 WNW 16 28 1012.4 - 14.4 Showers Mostly clear 9 - - - -
04/08:00am 8.7 WNW 14 22 1011.8 - 14.0 - Mostly clear 10 - - - -
04/07:41am 9.4 W 13 23 1011.3 - 13.8 Showers Mostly clear 6 - - - -
04/07:30am 10.6 W 12 22 1010.8 - 13.4 - Mostly clear 10 - - - -
04/07:26am 9.7 W 10 15 1011.0 - 13.4 - Mostly clear 10 - - - -
04/07:00am 9.6 WSW 15 26 1010.7 - 12.6 - Mostly clear 3 - - - -
04/06:30am 9.9 WSW 19 32 1009.8 - 9.6 Showers Mostly clear 2 - - - -
04/06:24am 9.8 W 18 32 1009.6 - 8.6 Showers Mostly clear 2 - - - -
04/06:11am 11.3 WSW 15 26 1009.0 - 6.0 Showers Mostly clear 5 - - - -
04/06:00am 11.4 W 11 24 1008.2 R 5.8 Showers Cloudy 15 - - - -
04/05:43am 10.2 W 18 30 1007.9 - 5.6 - Partly cloudy 3 - - - -
04/05:39am 9.7 W 17 30 1008.3 - 5.4 - Partly cloudy 4 - - - -

Other Formats:

Comma delimited format used in spreadsheet applications
http://www.bom.gov.au/fwo/IDW60701/IDW60701.94638.axf

JavaScript Object Notation format (JSON) in row-major order
http://www.bom.gov.au/fwo/IDW60701/IDW60701.94638.json